| time (UTC) | temp C | wind direction | speed KPH | gust KPH | rain 1hr cm | rain 24hr cm | rain mn cm | humidity % | barometer mb |
| 20260505070913 | 13 | 294 | 1.6 | 11.3 | 0.00 | 0.18 | 0.13 | 66 | 1006.9 |
| 20260505070111 | 13 | 341 | 1.6 | 11.3 | 0.00 | 0.13 | 0.08 | 66 | 1005.9 |
| 20260505065311 | 13 | 315 | 1.6 | 6.4 | 0.00 | 0.13 | 0.08 | 64 | 1005.5 |
| 20260505064512 | 13 | 32 | 3.2 | 16.1 | 0.00 | 0.13 | 0.08 | 62 | 1004.8 |
| 20260505063712 | 14 | 10 | 3.2 | 9.7 | 0.00 | 0.13 | 0.08 | 61 | 1004.4 |
| 20260505062911 | 14 | 15 | 3.2 | 19.3 | 0.00 | 0.13 | 0.08 | 57 | 1004.3 |
| 20260505062112 | 15 | 7 | 4.8 | 20.9 | 0.03 | 0.13 | 0.08 | 60 | 1004.0 |
| 20260505061312 | 15 | 321 | 1.6 | 14.5 | 0.03 | 0.13 | 0.08 | 66 | 1004.4 |
| 20260505060511 | 15 | 39 | 3.2 | 11.3 | 0.05 | 0.13 | 0.08 | 70 | 1003.8 |
| 20260505055712 | 15 | 23 | 1.6 | 9.7 | 0.08 | 0.13 | 0.08 | 72 | 1002.9 |
| 20260505054911 | 15 | 14 | 1.6 | 16.1 | 0.13 | 0.13 | 0.08 | 73 | 1002.9 |
| 20260505054111 | 15 | 27 | 4.8 | 22.5 | 0.13 | 0.13 | 0.05 | 71 | 1003.0 |
| 20260505053312 | 14 | 55 | 1.6 | 11.3 | 0.13 | 0.13 | 0.05 | 78 | 1002.5 |
| 20260505052512 | 15 | 0 | 0.0 | 0.0 | 0.08 | 0.08 | 0.05 | 78 | 1002.9 |
| 20260505051711 | 15 | 48 | 1.6 | 4.8 | 0.08 | 0.08 | 0.05 | 75 | 1002.6 |
| 20260505050912 | 16 | 47 | 3.2 | 8.0 | 0.05 | 0.05 | 0.03 | 71 | 1002.3 |
| 20260505050113 | 18 | 34 | 4.8 | 22.5 | 0.03 | 0.03 | 0.00 | 63 | 1002.4 |
| 20260505041311 | 21 | 292 | 1.6 | 6.4 | 0.00 | 0.00 | 0.00 | 67 | 1001.3 |
| 20260505040513 | 22 | 212 | 3.2 | 9.7 | 0.00 | 0.00 | 0.00 | 68 | 1001.4 |
| 20260505035712 | 22 | 182 | 6.4 | 11.3 | 0.00 | 0.00 | 0.00 | 67 | 1000.9 |
| 20260505034912 | 22 | 179 | 8.0 | 14.5 | 0.00 | 0.00 | 0.00 | 67 | 1000.7 |
| 20260505034112 | 22 | 181 | 9.7 | 14.5 | 0.00 | 0.00 | 0.00 | 66 | 1000.9 |
| 20260505033312 | 22 | 187 | 8.0 | 11.3 | 0.00 | 0.00 | 0.00 | 65 | 1000.8 |
| 20260505032512 | 22 | 189 | 8.0 | 12.9 | 0.00 | 0.00 | 0.00 | 64 | 1000.8 |
| 20260505031711 | 22 | 189 | 8.0 | 16.1 | 0.00 | 0.00 | 0.00 | 63 | 1000.6 |
| 20260505030912 | 22 | 190 | 6.4 | 9.7 | 0.00 | 0.00 | 0.00 | 61 | 1000.5 |
| 20260505030111 | 23 | 191 | 6.4 | 9.7 | 0.00 | 0.00 | 0.00 | 60 | 1000.5 |
| 20260505025312 | 23 | 194 | 6.4 | 9.7 | 0.00 | 0.00 | 0.00 | 59 | 1000.4 |
| 20260505024512 | 23 | 195 | 4.8 | 8.0 | 0.00 | 0.00 | 0.00 | 57 | 1000.4 |
| 20260505023711 | 23 | 195 | 4.8 | 8.0 | 0.00 | 0.00 | 0.00 | 56 | 1000.2 |
| 20260505022913 | 23 | 195 | 4.8 | 6.4 | 0.00 | 0.00 | 0.00 | 56 | 1000.1 |
| 20260505022112 | 23 | 195 | 4.8 | 8.0 | 0.00 | 0.00 | 0.00 | 55 | 1000.0 |
| 20260505021312 | 23 | 195 | 4.8 | 9.7 | 0.00 | 0.00 | 0.00 | 54 | 999.9 |
| 20260505020511 | 23 | 198 | 4.8 | 11.3 | 0.00 | 0.00 | 0.00 | 53 | 999.8 |
| 20260505015711 | 23 | 201 | 3.2 | 6.4 | 0.00 | 0.00 | 0.00 | 53 | 999.7 |
| 20260505014911 | 23 | 202 | 1.6 | 8.0 | 0.00 | 0.00 | 0.00 | 53 | 999.6 |
| 20260505014112 | 24 | 0 | 0.0 | 0.0 | 0.00 | 0.00 | 0.00 | 52 | 999.5 |
| 20260505013312 | 24 | 0 | 0.0 | 0.0 | 0.00 | 0.00 | 0.00 | 51 | 999.4 |
| 20260505012511 | 24 | 0 | 0.0 | 0.0 | 0.00 | 0.00 | 0.00 | 51 | 999.3 |
| 20260505011712 | 25 | 0 | 0.0 | 0.0 | 0.00 | 0.00 | 0.00 | 50 | 999.2 |
| 20260505010912 | 25 | 0 | 0.0 | 0.0 | 0.00 | 0.00 | 0.00 | 49 | 999.1 |
| 20260505010111 | 25 | 0 | 0.0 | 0.0 | 0.00 | 0.00 | 0.00 | 49 | 999.0 |
| 20260505005311 | 25 | 0 | 0.0 | 0.0 | 0.00 | 0.00 | 0.00 | 48 | 999.0 |
| 20260505004512 | 25 | 0 | 0.0 | 0.0 | 0.00 | 0.00 | 0.00 | 48 | 998.8 |
| 20260505003712 | 26 | 0 | 0.0 | 0.0 | 0.00 | 0.00 | 0.00 | 47 | 998.9 |
| 20260505002911 | 26 | 0 | 0.0 | 0.0 | 0.00 | 0.00 | 0.00 | 47 | 998.8 |
| 20260505002113 | 26 | 0 | 0.0 | 0.0 | 0.00 | 0.00 | 0.00 | 46 | 998.8 |
| 20260505001312 | 26 | 0 | 0.0 | 0.0 | 0.00 | 0.00 | 0.00 | 47 | 998.8 |
| 20260505000512 | 26 | 201 | 0.0 | 1.6 | 0.00 | 0.00 | 0.00 | 47 | 998.9 |
| 20260504235711 | 26 | 201 | 0.0 | 1.6 | 0.00 | 0.00 | 0.00 | 47 | 998.9 |
| 20260504234913 | 26 | 201 | 0.0 | 3.2 | 0.00 | 0.00 | 0.00 | 47 | 998.8 |
| 20260504234112 | 26 | 201 | 1.6 | 6.4 | 0.00 | 0.00 | 0.00 | 47 | 998.8 |
| 20260504233311 | 26 | 201 | 3.2 | 9.7 | 0.00 | 0.00 | 0.00 | 46 | 998.8 |
| 20260504232511 | 26 | 205 | 4.8 | 9.7 | 0.00 | 0.00 | 0.00 | 44 | 998.8 |
| 20260504231712 | 26 | 203 | 3.2 | 9.7 | 0.00 | 0.00 | 0.00 | 43 | 998.9 |
| 20260504230911 | 27 | 218 | 3.2 | 9.7 | 0.00 | 0.00 | 0.00 | 42 | 998.9 |
| 20260504230112 | 27 | 202 | 4.8 | 17.7 | 0.00 | 0.00 | 0.00 | 43 | 998.9 |
| 20260504225311 | 27 | 236 | 1.6 | 9.7 | 0.00 | 0.00 | 0.00 | 43 | 998.9 |
| 20260504224511 | 27 | 219 | 1.6 | 6.4 | 0.00 | 0.00 | 0.00 | 42 | 998.9 |
| 20260504223712 | 26 | 196 | 3.2 | 16.1 | 0.00 | 0.00 | 0.00 | 44 | 998.9 |
| 20260504222912 | 26 | 190 | 1.6 | 8.0 | 0.00 | 0.00 | 0.00 | 44 | 998.9 |
| 20260504222111 | 26 | 187 | 3.2 | 6.4 | 0.00 | 0.00 | 0.00 | 47 | 999.0 |
| 20260504221312 | 26 | 207 | 4.8 | 11.3 | 0.00 | 0.00 | 0.00 | 45 | 999.2 |
| 20260504220512 | 26 | 202 | 6.4 | 17.7 | 0.00 | 0.00 | 0.00 | 46 | 999.1 |
| 20260504215711 | 26 | 193 | 9.7 | 29.0 | 0.00 | 0.00 | 0.00 | 46 | 999.1 |
| 20260504214912 | 26 | 193 | 11.3 | 29.0 | 0.00 | 0.00 | 0.00 | 46 | 999.2 |
| 20260504214111 | 26 | 191 | 11.3 | 25.7 | 0.00 | 0.00 | 0.00 | 47 | 999.3 |
| 20260504213311 | 26 | 194 | 11.3 | 22.5 | 0.00 | 0.00 | 0.00 | 47 | 999.3 |
| 20260504212511 | 26 | 196 | 12.9 | 24.1 | 0.00 | 0.00 | 0.00 | 48 | 999.4 |
| 20260504211711 | 26 | 195 | 12.9 | 32.2 | 0.00 | 0.00 | 0.00 | 46 | 999.3 |
| 20260504210912 | 27 | 193 | 12.9 | 25.7 | 0.00 | 0.00 | 0.00 | 45 | 999.4 |
| 20260504210112 | 27 | 192 | 12.9 | 24.1 | 0.00 | 0.00 | 0.00 | 45 | 999.3 |
| 20260504205311 | 27 | 198 | 9.7 | 24.1 | 0.00 | 0.00 | 0.00 | 43 | 999.4 |
| 20260504204512 | 27 | 197 | 6.4 | 22.5 | 0.00 | 0.00 | 0.00 | 42 | 999.4 |
| 20260504203712 | 27 | 197 | 9.7 | 24.1 | 0.00 | 0.00 | 0.00 | 42 | 999.5 |
| 20260504202911 | 27 | 188 | 16.1 | 29.0 | 0.00 | 0.00 | 0.00 | 40 | 999.6 |
| 20260504202112 | 27 | 189 | 12.9 | 32.2 | 0.00 | 0.00 | 0.00 | 40 | 999.6 |
| 20260504201311 | 27 | 187 | 12.9 | 29.0 | 0.00 | 0.00 | 0.00 | 40 | 999.7 |
| 20260504200513 | 27 | 193 | 8.0 | 24.1 | 0.00 | 0.00 | 0.00 | 40 | 999.7 |
| 20260504195712 | 27 | 198 | 8.0 | 19.3 | 0.00 | 0.00 | 0.00 | 42 | 999.6 |
| 20260504194911 | 27 | 207 | 6.4 | 17.7 | 0.00 | 0.00 | 0.00 | 43 | 999.7 |
| 20260504194111 | 27 | 193 | 11.3 | 20.9 | 0.00 | 0.00 | 0.00 | 43 | 999.7 |
| 20260504193312 | 26 | 194 | 9.7 | 20.9 | 0.00 | 0.00 | 0.00 | 42 | 999.8 |
| 20260504192511 | 26 | 209 | 8.0 | 19.3 | 0.00 | 0.00 | 0.00 | 44 | 999.9 |
| 20260504191711 | 26 | 196 | 6.4 | 19.3 | 0.00 | 0.00 | 0.00 | 43 | 999.9 |
| 20260504190911 | 26 | 200 | 8.0 | 17.7 | 0.00 | 0.00 | 0.00 | 48 | 999.8 |
| 20260504190112 | 26 | 195 | 11.3 | 30.6 | 0.00 | 0.00 | 0.00 | 46 | 1000.1 |
| 20260504185311 | 26 | 195 | 11.3 | 20.9 | 0.00 | 0.00 | 0.00 | 47 | 1000.1 |
| 20260504184512 | 26 | 197 | 6.4 | 16.1 | 0.00 | 0.00 | 0.00 | 46 | 1000.1 |
| 20260504183712 | 26 | 193 | 11.3 | 25.7 | 0.00 | 0.00 | 0.00 | 48 | 1000.1 |
| 20260504182911 | 26 | 208 | 8.0 | 25.7 | 0.00 | 0.00 | 0.00 | 46 | 1000.2 |
| 20260504182112 | 25 | 203 | 6.4 | 16.1 | 0.00 | 0.00 | 0.00 | 47 | 1000.3 |
| 20260504181311 | 25 | 201 | 8.0 | 20.9 | 0.00 | 0.00 | 0.00 | 49 | 1000.4 |
| 20260504180513 | 25 | 193 | 11.3 | 20.9 | 0.00 | 0.00 | 0.00 | 47 | 1000.4 |
| 20260504175712 | 25 | 192 | 8.0 | 19.3 | 0.00 | 0.00 | 0.00 | 50 | 1000.5 |
| 20260504174912 | 25 | 203 | 9.7 | 19.3 | 0.00 | 0.00 | 0.00 | 47 | 1000.6 |
| 20260504174112 | 25 | 198 | 8.0 | 24.1 | 0.00 | 0.00 | 0.00 | 48 | 1000.6 |
| 20260504173312 | 25 | 238 | 4.8 | 14.5 | 0.00 | 0.00 | 0.00 | 47 | 1000.6 |
| 20260504172511 | 25 | 218 | 4.8 | 17.7 | 0.00 | 0.00 | 0.00 | 49 | 1000.7 |
| 20260504171712 | 24 | 212 | 6.4 | 22.5 | 0.00 | 0.00 | 0.00 | 49 | 1000.7 |
| 20260504170911 | 24 | 213 | 4.8 | 16.1 | 0.00 | 0.00 | 0.00 | 48 | 1000.8 |
| 20260504170112 | 23 | 208 | 6.4 | 17.7 | 0.00 | 0.00 | 0.00 | 48 | 1000.7 |
| 20260504150912 | 21 | 207 | 11.3 | 27.4 | 0.00 | 0.00 | 0.00 | 52 | 1001.3 |
| 20260504150111 | 21 | 204 | 9.7 | 22.5 | 0.00 | 0.00 | 0.00 | 54 | 1001.2 |
| 20260504141312 | 19 | 188 | 6.4 | 19.3 | 0.00 | 0.00 | 0.00 | 59 | 1001.5 |
| 20260504140511 | 18 | 188 | 6.4 | 17.7 | 0.00 | 0.00 | 0.00 | 59 | 1001.5 |
| 20260504130112 | 17 | 184 | 6.4 | 16.1 | 0.00 | 0.00 | 0.00 | 60 | 1001.3 |
| 20260504110112 | 17 | 184 | 4.8 | 9.7 | 0.00 | 0.00 | 0.00 | 58 | 1001.6 |
| 20260504100511 | 18 | 183 | 1.6 | 8.0 | 0.00 | 0.00 | 0.00 | 55 | 1002.2 |
| 20260504090113 | 18 | 193 | 4.8 | 11.3 | 0.00 | 0.00 | 0.00 | 54 | 1002.5 |
| 20260504081312 | 18 | 182 | 6.4 | 14.5 | 0.00 | 0.00 | 0.00 | 55 | 1002.6 |
| 20260504080512 | 18 | 179 | 6.4 | 11.3 | 0.00 | 0.00 | 0.00 | 55 | 1002.8 |